Litchfield, Minnesota
Current Conditions -  °F | °C
As of 4:53 PM on Wednesday 26 Nov 2014 (Local Time) from KLJF Reporting Station
Overcast Overcast  
Wind Chill: 12°   Ceiling: 2200
Heat Index: 21°   Visibility: 10mi
Dew Point: 16°   Wind: 8mph
Humidity: 80%   Direction: 320°NW
Pressure: 30.3"   Gusts: NA
Location:  45.13°N, 94.53°W
Report Text: KLJF 262253Z AUTO 32007KT 10SM BKN022 OVC085 M06/M09 A3030 RMK AO2
Loading
Personal Weather Stations






























Interactive Weather Map New forecast layout! Learn more

10-Day Weather Forecast

Advertisements
Track Severe Weather on mobile